sensor_id;sensor_type;location;lat;lon;timestamp;P1;P2;P0
74333;PMS5003;62753;40.394;-80.022;2023-07-31T00:01:30;12;12;
74333;PMS5003;62753;40.394;-80.022;2023-07-31T00:03:55;10;10;
74333;PMS5003;62753;40.394;-80.022;2023-07-31T00:06:21;9;9;
74333;PMS5003;62753;40.394;-80.022;2023-07-31T00:08:47;12;10;
74333;PMS5003;62753;40.394;-80.022;2023-07-31T00:11:12;13;13;
74333;PMS5003;62753;40.394;-80.022;2023-07-31T00:13:37;14;13;
74333;PMS5003;62753;40.394;-80.022;2023-07-31T00:16:03;13;13;
74333;PMS5003;62753;40.394;-80.022;2023-07-31T00:18:28;12;12;
74333;PMS5003;62753;40.394;-80.022;2023-07-31T00:20:53;10;10;
74333;PMS5003;62753;40.394;-80.022;2023-07-31T00:23:19;8;8;
74333;PMS5003;62753;40.394;-80.022;2023-07-31T00:25:44;9;9;
74333;PMS5003;62753;40.394;-80.022;2023-07-31T00:28:10;10;10;
74333;PMS5003;62753;40.394;-80.022;2023-07-31T00:30:35;12;11;
74333;PMS5003;62753;40.394;-80.022;2023-07-31T00:33:01;13;12;
74333;PMS5003;62753;40.394;-80.022;2023-07-31T00:35:25;13;12;
74333;PMS5003;62753;40.394;-80.022;2023-07-31T00:37:51;11;11;
74333;PMS5003;62753;40.394;-80.022;2023-07-31T00:40:16;12;11;
74333;PMS5003;62753;40.394;-80.022;2023-07-31T00:42:41;8;8;
74333;PMS5003;62753;40.394;-80.022;2023-07-31T00:45:07;11;11;
74333;PMS5003;62753;40.394;-80.022;2023-07-31T00:47:32;10;9;
74333;PMS5003;62753;40.394;-80.022;2023-07-31T00:49:57;12;11;
74333;PMS5003;62753;40.394;-80.022;2023-07-31T00:52:23;13;12;
74333;PMS5003;62753;40.394;-80.022;2023-07-31T00:54:49;10;9;
74333;PMS5003;62753;40.394;-80.022;2023-07-31T00:57:14;11;11;
74333;PMS5003;62753;40.394;-80.022;2023-07-31T00:59:39;11;11;
74333;PMS5003;62753;40.394;-80.022;2023-07-31T01:02:05;13;12;
74333;PMS5003;62753;40.394;-80.022;2023-07-31T01:04:29;12;11;
74333;PMS5003;62753;40.394;-80.022;2023-07-31T01:06:56;16;12;
74333;PMS5003;62753;40.394;-80.022;2023-07-31T01:09:22;11;11;
74333;PMS5003;62753;40.394;-80.022;2023-07-31T01:11:46;14;13;
74333;PMS5003;62753;40.394;-80.022;2023-07-31T01:14:12;14;14;
74333;PMS5003;62753;40.394;-80.022;2023-07-31T01:16:36;15;15;
74333;PMS5003;62753;40.394;-80.022;2023-07-31T01:19:01;12;12;
74333;PMS5003;62753;40.394;-80.022;2023-07-31T01:21:33;13;13;
74333;PMS5003;62753;40.394;-80.022;2023-07-31T01:23:59;17;16;
74333;PMS5003;62753;40.394;-80.022;2023-07-31T01:26:19;96;86;
74333;PMS5003;62753;40.394;-80.022;2023-07-31T01:28:46;59;55;
74333;PMS5003;62753;40.394;-80.022;2023-07-31T01:31:10;16;15;
74333;PMS5003;62753;40.394;-80.022;2023-07-31T01:33:34;15;14;
74333;PMS5003;62753;40.394;-80.022;2023-07-31T01:36:00;11;10;
74333;PMS5003;62753;40.394;-80.022;2023-07-31T01:38:24;12;11;
74333;PMS5003;62753;40.394;-80.022;2023-07-31T01:40:51;12;11;
74333;PMS5003;62753;40.394;-80.022;2023-07-31T01:43:16;15;13;
74333;PMS5003;62753;40.394;-80.022;2023-07-31T01:45:42;15;13;
74333;PMS5003;62753;40.394;-80.022;2023-07-31T01:48:07;15;14;
74333;PMS5003;62753;40.394;-80.022;2023-07-31T01:50:32;10;10;
74333;PMS5003;62753;40.394;-80.022;2023-07-31T01:52:57;15;15;
74333;PMS5003;62753;40.394;-80.022;2023-07-31T01:55:22;11;11;
74333;PMS5003;62753;40.394;-80.022;2023-07-31T01:57:47;12;12;
74333;PMS5003;62753;40.394;-80.022;2023-07-31T02:00:13;12;12;
74333;PMS5003;62753;40.394;-80.022;2023-07-31T02:02:37;12;11;
74333;PMS5003;62753;40.394;-80.022;2023-07-31T02:05:03;12;12;
74333;PMS5003;62753;40.394;-80.022;2023-07-31T02:07:28;15;12;
74333;PMS5003;62753;40.394;-80.022;2023-07-31T02:09:53;11;11;
74333;PMS5003;62753;40.394;-80.022;2023-07-31T02:12:18;11;10;
74333;PMS5003;62753;40.394;-80.022;2023-07-31T02:14:44;12;11;
74333;PMS5003;62753;40.394;-80.022;2023-07-31T02:17:09;16;13;
74333;PMS5003;62753;40.394;-80.022;2023-07-31T02:19:34;12;12;
74333;PMS5003;62753;40.394;-80.022;2023-07-31T02:21:59;14;14;
74333;PMS5003;62753;40.394;-80.022;2023-07-31T02:24:24;13;13;
74333;PMS5003;62753;40.394;-80.022;2023-07-31T02:26:50;14;13;
74333;PMS5003;62753;40.394;-80.022;2023-07-31T02:29:15;11;11;
74333;PMS5003;62753;40.394;-80.022;2023-07-31T02:31:40;13;13;
74333;PMS5003;62753;40.394;-80.022;2023-07-31T02:34:05;13;13;
74333;PMS5003;62753;40.394;-80.022;2023-07-31T02:36:31;11;10;
74333;PMS5003;62753;40.394;-80.022;2023-07-31T02:38:56;13;12;
74333;PMS5003;62753;40.394;-80.022;2023-07-31T02:41:22;12;12;
74333;PMS5003;62753;40.394;-80.022;2023-07-31T02:43:47;11;11;
74333;PMS5003;62753;40.394;-80.022;2023-07-31T02:46:12;12;12;
74333;PMS5003;62753;40.394;-80.022;2023-07-31T02:48:38;12;12;
74333;PMS5003;62753;40.394;-80.022;2023-07-31T02:51:03;16;12;
74333;PMS5003;62753;40.394;-80.022;2023-07-31T02:53:28;13;12;
74333;PMS5003;62753;40.394;-80.022;2023-07-31T02:55:53;13;13;
74333;PMS5003;62753;40.394;-80.022;2023-07-31T02:58:19;19;16;
74333;PMS5003;62753;40.394;-80.022;2023-07-31T03:00:45;14;12;
74333;PMS5003;62753;40.394;-80.022;2023-07-31T03:03:10;14;13;
74333;PMS5003;62753;40.394;-80.022;2023-07-31T03:05:35;14;13;
74333;PMS5003;62753;40.394;-80.022;2023-07-31T03:08:00;11;11;
74333;PMS5003;62753;40.394;-80.022;2023-07-31T03:10:25;11;11;
74333;PMS5003;62753;40.394;-80.022;2023-07-31T03:12:50;14;13;
74333;PMS5003;62753;40.394;-80.022;2023-07-31T03:15:16;12;11;
74333;PMS5003;62753;40.394;-80.022;2023-07-31T03:17:41;11;11;
74333;PMS5003;62753;40.394;-80.022;2023-07-31T03:20:08;13;13;
74333;PMS5003;62753;40.394;-80.022;2023-07-31T03:22:32;16;14;
74333;PMS5003;62753;40.394;-80.022;2023-07-31T03:24:57;14;13;
74333;PMS5003;62753;40.394;-80.022;2023-07-31T03:27:22;12;12;
74333;PMS5003;62753;40.394;-80.022;2023-07-31T03:29:48;9;9;
74333;PMS5003;62753;40.394;-80.022;2023-07-31T03:32:13;12;11;
74333;PMS5003;62753;40.394;-80.022;2023-07-31T03:34:39;13;13;
74333;PMS5003;62753;40.394;-80.022;2023-07-31T03:37:05;15;14;
74333;PMS5003;62753;40.394;-80.022;2023-07-31T03:39:31;17;14;
74333;PMS5003;62753;40.394;-80.022;2023-07-31T03:41:55;12;11;
74333;PMS5003;62753;40.394;-80.022;2023-07-31T03:44:21;16;15;
74333;PMS5003;62753;40.394;-80.022;2023-07-31T03:46:47;15;14;
74333;PMS5003;62753;40.394;-80.022;2023-07-31T03:49:12;15;13;
74333;PMS5003;62753;40.394;-80.022;2023-07-31T03:51:37;15;14;
74333;PMS5003;62753;40.394;-80.022;2023-07-31T03:54:02;14;12;
74333;PMS5003;62753;40.394;-80.022;2023-07-31T03:56:28;15;15;
74333;PMS5003;62753;40.394;-80.022;2023-07-31T03:58:53;16;16;
74333;PMS5003;62753;40.394;-80.022;2023-07-31T04:01:19;15;15;
74333;PMS5003;62753;40.394;-80.022;2023-07-31T04:03:44;12;11;
74333;PMS5003;62753;40.394;-80.022;2023-07-31T04:06:09;16;14;
74333;PMS5003;62753;40.394;-80.022;2023-07-31T04:08:35;15;14;
74333;PMS5003;62753;40.394;-80.022;2023-07-31T04:11:00;13;13;
74333;PMS5003;62753;40.394;-80.022;2023-07-31T04:13:25;14;13;
74333;PMS5003;62753;40.394;-80.022;2023-07-31T04:15:51;15;14;
74333;PMS5003;62753;40.394;-80.022;2023-07-31T04:18:17;16;15;
74333;PMS5003;62753;40.394;-80.022;2023-07-31T04:20:42;18;16;
74333;PMS5003;62753;40.394;-80.022;2023-07-31T04:23:08;17;17;
74333;PMS5003;62753;40.394;-80.022;2023-07-31T04:25:33;15;14;
74333;PMS5003;62753;40.394;-80.022;2023-07-31T04:27:59;17;17;
74333;PMS5003;62753;40.394;-80.022;2023-07-31T04:30:25;19;18;
74333;PMS5003;62753;40.394;-80.022;2023-07-31T04:32:50;15;15;
74333;PMS5003;62753;40.394;-80.022;2023-07-31T04:35:15;16;16;
74333;PMS5003;62753;40.394;-80.022;2023-07-31T04:37:41;19;16;
74333;PMS5003;62753;40.394;-80.022;2023-07-31T04:40:07;17;16;
74333;PMS5003;62753;40.394;-80.022;2023-07-31T04:42:32;18;18;
74333;PMS5003;62753;40.394;-80.022;2023-07-31T04:44:57;15;14;
74333;PMS5003;62753;40.394;-80.022;2023-07-31T04:47:23;18;14;
74333;PMS5003;62753;40.394;-80.022;2023-07-31T04:49:48;13;13;
74333;PMS5003;62753;40.394;-80.022;2023-07-31T04:52:14;16;15;
74333;PMS5003;62753;40.394;-80.022;2023-07-31T04:54:40;20;14;
74333;PMS5003;62753;40.394;-80.022;2023-07-31T04:57:06;13;13;
74333;PMS5003;62753;40.394;-80.022;2023-07-31T04:59:31;17;16;
74333;PMS5003;62753;40.394;-80.022;2023-07-31T05:01:56;13;13;
74333;PMS5003;62753;40.394;-80.022;2023-07-31T05:04:23;15;14;
74333;PMS5003;62753;40.394;-80.022;2023-07-31T05:06:48;17;15;
74333;PMS5003;62753;40.394;-80.022;2023-07-31T05:09:13;13;13;
74333;PMS5003;62753;40.394;-80.022;2023-07-31T05:11:38;15;15;
74333;PMS5003;62753;40.394;-80.022;2023-07-31T05:14:04;15;15;
74333;PMS5003;62753;40.394;-80.022;2023-07-31T05:16:29;16;16;
74333;PMS5003;62753;40.394;-80.022;2023-07-31T05:18:54;15;15;
74333;PMS5003;62753;40.394;-80.022;2023-07-31T05:21:20;17;16;
74333;PMS5003;62753;40.394;-80.022;2023-07-31T05:23:45;15;13;
74333;PMS5003;62753;40.394;-80.022;2023-07-31T05:26:11;15;14;
74333;PMS5003;62753;40.394;-80.022;2023-07-31T05:28:37;16;15;
74333;PMS5003;62753;40.394;-80.022;2023-07-31T05:31:02;18;15;
74333;PMS5003;62753;40.394;-80.022;2023-07-31T05:33:28;16;15;
74333;PMS5003;62753;40.394;-80.022;2023-07-31T05:35:52;18;18;
74333;PMS5003;62753;40.394;-80.022;2023-07-31T05:38:18;15;15;
74333;PMS5003;62753;40.394;-80.022;2023-07-31T05:40:44;18;17;
74333;PMS5003;62753;40.394;-80.022;2023-07-31T05:43:09;17;16;
74333;PMS5003;62753;40.394;-80.022;2023-07-31T05:45:34;24;18;
74333;PMS5003;62753;40.394;-80.022;2023-07-31T05:48:00;18;16;
74333;PMS5003;62753;40.394;-80.022;2023-07-31T05:50:25;18;14;
74333;PMS5003;62753;40.394;-80.022;2023-07-31T05:52:50;18;15;
74333;PMS5003;62753;40.394;-80.022;2023-07-31T05:55:16;19;18;
74333;PMS5003;62753;40.394;-80.022;2023-07-31T05:57:41;17;16;
74333;PMS5003;62753;40.394;-80.022;2023-07-31T06:00:07;16;16;
74333;PMS5003;62753;40.394;-80.022;2023-07-31T06:02:32;19;17;
74333;PMS5003;62753;40.394;-80.022;2023-07-31T06:04:57;18;16;
74333;PMS5003;62753;40.394;-80.022;2023-07-31T06:07:22;18;18;
74333;PMS5003;62753;40.394;-80.022;2023-07-31T06:09:47;20;20;
74333;PMS5003;62753;40.394;-80.022;2023-07-31T06:12:13;16;15;
74333;PMS5003;62753;40.394;-80.022;2023-07-31T06:14:38;15;15;
74333;PMS5003;62753;40.394;-80.022;2023-07-31T06:17:04;18;17;
74333;PMS5003;62753;40.394;-80.022;2023-07-31T06:19:29;17;16;
74333;PMS5003;62753;40.394;-80.022;2023-07-31T06:21:54;16;16;
74333;PMS5003;62753;40.394;-80.022;2023-07-31T06:24:20;18;18;
74333;PMS5003;62753;40.394;-80.022;2023-07-31T06:26:45;16;15;
74333;PMS5003;62753;40.394;-80.022;2023-07-31T06:29:11;15;14;
74333;PMS5003;62753;40.394;-80.022;2023-07-31T06:31:36;16;16;
74333;PMS5003;62753;40.394;-80.022;2023-07-31T06:34:02;15;13;
74333;PMS5003;62753;40.394;-80.022;2023-07-31T06:36:27;11;11;
74333;PMS5003;62753;40.394;-80.022;2023-07-31T06:38:52;12;12;
74333;PMS5003;62753;40.394;-80.022;2023-07-31T06:41:17;17;14;
74333;PMS5003;62753;40.394;-80.022;2023-07-31T06:43:44;16;15;
74333;PMS5003;62753;40.394;-80.022;2023-07-31T06:46:09;15;15;
74333;PMS5003;62753;40.394;-80.022;2023-07-31T06:48:34;17;16;
74333;PMS5003;62753;40.394;-80.022;2023-07-31T06:51:00;16;14;
74333;PMS5003;62753;40.394;-80.022;2023-07-31T06:53:25;12;11;
74333;PMS5003;62753;40.394;-80.022;2023-07-31T06:55:50;20;15;
74333;PMS5003;62753;40.394;-80.022;2023-07-31T06:58:15;15;14;
74333;PMS5003;62753;40.394;-80.022;2023-07-31T07:00:41;15;14;
74333;PMS5003;62753;40.394;-80.022;2023-07-31T07:03:06;14;13;
74333;PMS5003;62753;40.394;-80.022;2023-07-31T07:05:31;14;13;
74333;PMS5003;62753;40.394;-80.022;2023-07-31T07:07:56;14;14;
74333;PMS5003;62753;40.394;-80.022;2023-07-31T07:10:22;15;15;
74333;PMS5003;62753;40.394;-80.022;2023-07-31T07:12:47;16;15;
74333;PMS5003;62753;40.394;-80.022;2023-07-31T07:15:12;14;14;
74333;PMS5003;62753;40.394;-80.022;2023-07-31T07:17:38;15;13;
74333;PMS5003;62753;40.394;-80.022;2023-07-31T07:20:03;14;13;
74333;PMS5003;62753;40.394;-80.022;2023-07-31T07:22:29;15;14;
74333;PMS5003;62753;40.394;-80.022;2023-07-31T07:24:54;14;14;
74333;PMS5003;62753;40.394;-80.022;2023-07-31T07:27:19;19;17;
74333;PMS5003;62753;40.394;-80.022;2023-07-31T07:29:45;14;14;
74333;PMS5003;62753;40.394;-80.022;2023-07-31T07:32:10;20;15;
74333;PMS5003;62753;40.394;-80.022;2023-07-31T07:34:36;17;14;
74333;PMS5003;62753;40.394;-80.022;2023-07-31T07:37:02;14;14;
74333;PMS5003;62753;40.394;-80.022;2023-07-31T07:39:27;15;14;
74333;PMS5003;62753;40.394;-80.022;2023-07-31T07:41:53;19;16;
74333;PMS5003;62753;40.394;-80.022;2023-07-31T07:44:18;16;15;
74333;PMS5003;62753;40.394;-80.022;2023-07-31T07:46:44;20;14;
74333;PMS5003;62753;40.394;-80.022;2023-07-31T07:49:09;18;17;
74333;PMS5003;62753;40.394;-80.022;2023-07-31T07:51:35;15;15;
74333;PMS5003;62753;40.394;-80.022;2023-07-31T07:54:01;16;15;
74333;PMS5003;62753;40.394;-80.022;2023-07-31T07:56:26;13;13;
74333;PMS5003;62753;40.394;-80.022;2023-07-31T07:58:52;13;13;
74333;PMS5003;62753;40.394;-80.022;2023-07-31T08:01:17;13;13;
74333;PMS5003;62753;40.394;-80.022;2023-07-31T08:03:43;13;13;
74333;PMS5003;62753;40.394;-80.022;2023-07-31T08:06:10;13;13;
74333;PMS5003;62753;40.394;-80.022;2023-07-31T08:08:35;15;14;
74333;PMS5003;62753;40.394;-80.022;2023-07-31T08:11:00;15;14;
74333;PMS5003;62753;40.394;-80.022;2023-07-31T08:13:25;14;14;
74333;PMS5003;62753;40.394;-80.022;2023-07-31T08:15:50;16;15;
74333;PMS5003;62753;40.394;-80.022;2023-07-31T08:18:16;15;15;
74333;PMS5003;62753;40.394;-80.022;2023-07-31T08:20:41;14;13;
74333;PMS5003;62753;40.394;-80.022;2023-07-31T08:23:07;13;13;
74333;PMS5003;62753;40.394;-80.022;2023-07-31T08:25:34;12;12;
74333;PMS5003;62753;40.394;-80.022;2023-07-31T08:27:58;13;13;
74333;PMS5003;62753;40.394;-80.022;2023-07-31T08:30:23;13;12;
74333;PMS5003;62753;40.394;-80.022;2023-07-31T08:32:49;14;12;
74333;PMS5003;62753;40.394;-80.022;2023-07-31T08:35:14;12;12;
74333;PMS5003;62753;40.394;-80.022;2023-07-31T08:37:39;13;12;
74333;PMS5003;62753;40.394;-80.022;2023-07-31T08:40:05;13;12;
74333;PMS5003;62753;40.394;-80.022;2023-07-31T08:42:30;14;14;
74333;PMS5003;62753;40.394;-80.022;2023-07-31T08:44:55;15;15;
74333;PMS5003;62753;40.394;-80.022;2023-07-31T08:47:21;14;14;
74333;PMS5003;62753;40.394;-80.022;2023-07-31T08:49:46;17;16;
74333;PMS5003;62753;40.394;-80.022;2023-07-31T08:52:11;15;15;
74333;PMS5003;62753;40.394;-80.022;2023-07-31T08:54:36;14;14;
74333;PMS5003;62753;40.394;-80.022;2023-07-31T08:57:02;15;14;
74333;PMS5003;62753;40.394;-80.022;2023-07-31T08:59:27;15;14;
74333;PMS5003;62753;40.394;-80.022;2023-07-31T09:01:53;16;15;
74333;PMS5003;62753;40.394;-80.022;2023-07-31T09:04:19;18;17;
74333;PMS5003;62753;40.394;-80.022;2023-07-31T09:06:44;14;14;
74333;PMS5003;62753;40.394;-80.022;2023-07-31T09:09:09;15;14;
74333;PMS5003;62753;40.394;-80.022;2023-07-31T09:11:35;17;15;
74333;PMS5003;62753;40.394;-80.022;2023-07-31T09:14:00;12;12;
74333;PMS5003;62753;40.394;-80.022;2023-07-31T09:16:27;16;11;
74333;PMS5003;62753;40.394;-80.022;2023-07-31T09:18:53;13;12;
74333;PMS5003;62753;40.394;-80.022;2023-07-31T09:21:17;21;18;
74333;PMS5003;62753;40.394;-80.022;2023-07-31T09:23:43;16;15;
74333;PMS5003;62753;40.394;-80.022;2023-07-31T09:26:08;14;13;
74333;PMS5003;62753;40.394;-80.022;2023-07-31T09:28:34;15;14;
74333;PMS5003;62753;40.394;-80.022;2023-07-31T09:30:59;14;14;
74333;PMS5003;62753;40.394;-80.022;2023-07-31T09:33:24;15;15;
74333;PMS5003;62753;40.394;-80.022;2023-07-31T09:35:49;15;14;
74333;PMS5003;62753;40.394;-80.022;2023-07-31T09:38:15;15;15;
74333;PMS5003;62753;40.394;-80.022;2023-07-31T09:40:41;13;12;
74333;PMS5003;62753;40.394;-80.022;2023-07-31T09:43:06;15;14;
74333;PMS5003;62753;40.394;-80.022;2023-07-31T09:45:33;15;13;
74333;PMS5003;62753;40.394;-80.022;2023-07-31T09:47:56;12;12;
74333;PMS5003;62753;40.394;-80.022;2023-07-31T09:50:23;15;14;
74333;PMS5003;62753;40.394;-80.022;2023-07-31T09:52:47;17;15;
74333;PMS5003;62753;40.394;-80.022;2023-07-31T09:55:13;15;14;
74333;PMS5003;62753;40.394;-80.022;2023-07-31T09:57:39;15;11;
74333;PMS5003;62753;40.394;-80.022;2023-07-31T10:00:04;13;13;
74333;PMS5003;62753;40.394;-80.022;2023-07-31T10:02:29;13;13;
74333;PMS5003;62753;40.394;-80.022;2023-07-31T10:04:54;16;15;
74333;PMS5003;62753;40.394;-80.022;2023-07-31T10:07:20;11;11;
74333;PMS5003;62753;40.394;-80.022;2023-07-31T10:09:45;15;14;
74333;PMS5003;62753;40.394;-80.022;2023-07-31T10:12:11;14;12;
74333;PMS5003;62753;40.394;-80.022;2023-07-31T10:14:36;12;12;
74333;PMS5003;62753;40.394;-80.022;2023-07-31T10:17:01;13;13;
74333;PMS5003;62753;40.394;-80.022;2023-07-31T10:19:27;13;12;
74333;PMS5003;62753;40.394;-80.022;2023-07-31T10:21:52;11;11;
74333;PMS5003;62753;40.394;-80.022;2023-07-31T10:24:18;12;11;
74333;PMS5003;62753;40.394;-80.022;2023-07-31T10:26:44;14;14;
74333;PMS5003;62753;40.394;-80.022;2023-07-31T10:29:09;11;11;
74333;PMS5003;62753;40.394;-80.022;2023-07-31T10:31:35;15;13;
74333;PMS5003;62753;40.394;-80.022;2023-07-31T10:34:00;14;13;
74333;PMS5003;62753;40.394;-80.022;2023-07-31T10:36:26;14;14;
74333;PMS5003;62753;40.394;-80.022;2023-07-31T10:38:51;15;15;
74333;PMS5003;62753;40.394;-80.022;2023-07-31T10:41:16;12;11;
74333;PMS5003;62753;40.394;-80.022;2023-07-31T10:43:41;14;12;
74333;PMS5003;62753;40.394;-80.022;2023-07-31T10:46:07;12;12;
74333;PMS5003;62753;40.394;-80.022;2023-07-31T10:48:33;12;12;
74333;PMS5003;62753;40.394;-80.022;2023-07-31T10:50:57;16;14;
74333;PMS5003;62753;40.394;-80.022;2023-07-31T10:53:23;13;12;
74333;PMS5003;62753;40.394;-80.022;2023-07-31T10:55:48;13;13;
74333;PMS5003;62753;40.394;-80.022;2023-07-31T10:58:13;12;12;
74333;PMS5003;62753;40.394;-80.022;2023-07-31T11:00:38;11;10;
74333;PMS5003;62753;40.394;-80.022;2023-07-31T11:03:05;12;11;
74333;PMS5003;62753;40.394;-80.022;2023-07-31T11:07:55;13;13;
74333;PMS5003;62753;40.394;-80.022;2023-07-31T11:10:20;14;13;
74333;PMS5003;62753;40.394;-80.022;2023-07-31T11:12:46;14;13;
74333;PMS5003;62753;40.394;-80.022;2023-07-31T11:15:11;12;12;
74333;PMS5003;62753;40.394;-80.022;2023-07-31T11:17:38;14;14;
74333;PMS5003;62753;40.394;-80.022;2023-07-31T11:20:02;13;13;
74333;PMS5003;62753;40.394;-80.022;2023-07-31T11:22:27;14;13;
74333;PMS5003;62753;40.394;-80.022;2023-07-31T11:24:52;14;14;
74333;PMS5003;62753;40.394;-80.022;2023-07-31T11:27:19;12;12;
74333;PMS5003;62753;40.394;-80.022;2023-07-31T11:29:43;12;12;
74333;PMS5003;62753;40.394;-80.022;2023-07-31T11:36:59;11;11;
74333;PMS5003;62753;40.394;-80.022;2023-07-31T11:39:24;11;11;
74333;PMS5003;62753;40.394;-80.022;2023-07-31T11:41:50;13;13;
74333;PMS5003;62753;40.394;-80.022;2023-07-31T11:44:16;16;14;
74333;PMS5003;62753;40.394;-80.022;2023-07-31T11:46:41;13;13;
74333;PMS5003;62753;40.394;-80.022;2023-07-31T11:49:07;15;14;
74333;PMS5003;62753;40.394;-80.022;2023-07-31T11:51:32;13;13;
74333;PMS5003;62753;40.394;-80.022;2023-07-31T11:53:58;15;15;
74333;PMS5003;62753;40.394;-80.022;2023-07-31T11:56:24;12;12;
74333;PMS5003;62753;40.394;-80.022;2023-07-31T11:58:51;10;10;
74333;PMS5003;62753;40.394;-80.022;2023-07-31T12:01:15;13;11;
74333;PMS5003;62753;40.394;-80.022;2023-07-31T12:03:39;14;13;
74333;PMS5003;62753;40.394;-80.022;2023-07-31T12:06:05;8;8;
74333;PMS5003;62753;40.394;-80.022;2023-07-31T12:08:31;13;12;
74333;PMS5003;62753;40.394;-80.022;2023-07-31T12:11:02;12;12;
74333;PMS5003;62753;40.394;-80.022;2023-07-31T12:13:23;10;9;
74333;PMS5003;62753;40.394;-80.022;2023-07-31T12:15:47;9;9;
74333;PMS5003;62753;40.394;-80.022;2023-07-31T12:18:13;11;11;
74333;PMS5003;62753;40.394;-80.022;2023-07-31T12:20:42;8;8;
74333;PMS5003;62753;40.394;-80.022;2023-07-31T12:23:03;11;11;
74333;PMS5003;62753;40.394;-80.022;2023-07-31T12:25:29;9;9;
74333;PMS5003;62753;40.394;-80.022;2023-07-31T12:27:53;15;12;
74333;PMS5003;62753;40.394;-80.022;2023-07-31T12:30:28;14;13;
74333;PMS5003;62753;40.394;-80.022;2023-07-31T12:32:45;11;11;
74333;PMS5003;62753;40.394;-80.022;2023-07-31T12:35:10;9;9;
74333;PMS5003;62753;40.394;-80.022;2023-07-31T12:37:35;8;8;
74333;PMS5003;62753;40.394;-80.022;2023-07-31T12:40:00;6;6;
74333;PMS5003;62753;40.394;-80.022;2023-07-31T12:42:26;8;8;
74333;PMS5003;62753;40.394;-80.022;2023-07-31T12:44:50;10;9;
74333;PMS5003;62753;40.394;-80.022;2023-07-31T12:47:16;9;9;
74333;PMS5003;62753;40.394;-80.022;2023-07-31T12:49:41;9;8;
74333;PMS5003;62753;40.394;-80.022;2023-07-31T12:52:06;8;6;
74333;PMS5003;62753;40.394;-80.022;2023-07-31T12:54:32;10;9;
74333;PMS5003;62753;40.394;-80.022;2023-07-31T12:56:57;9;9;
74333;PMS5003;62753;40.394;-80.022;2023-07-31T12:59:21;10;10;
74333;PMS5003;62753;40.394;-80.022;2023-07-31T13:01:47;8;8;
74333;PMS5003;62753;40.394;-80.022;2023-07-31T13:04:12;9;8;
74333;PMS5003;62753;40.394;-80.022;2023-07-31T13:06:37;6;6;
74333;PMS5003;62753;40.394;-80.022;2023-07-31T13:09:03;8;7;
74333;PMS5003;62753;40.394;-80.022;2023-07-31T13:11:28;6;6;
74333;PMS5003;62753;40.394;-80.022;2023-07-31T13:13:53;8;8;
74333;PMS5003;62753;40.394;-80.022;2023-07-31T13:16:18;9;8;
74333;PMS5003;62753;40.394;-80.022;2023-07-31T13:18:44;8;7;
74333;PMS5003;62753;40.394;-80.022;2023-07-31T13:21:09;10;8;
74333;PMS5003;62753;40.394;-80.022;2023-07-31T13:23:34;10;10;
74333;PMS5003;62753;40.394;-80.022;2023-07-31T13:25:59;8;7;
74333;PMS5003;62753;40.394;-80.022;2023-07-31T13:28:25;11;9;
74333;PMS5003;62753;40.394;-80.022;2023-07-31T13:30:50;8;8;
74333;PMS5003;62753;40.394;-80.022;2023-07-31T13:33:15;8;7;
74333;PMS5003;62753;40.394;-80.022;2023-07-31T13:35:40;8;7;
74333;PMS5003;62753;40.394;-80.022;2023-07-31T13:38:06;4;4;
74333;PMS5003;62753;40.394;-80.022;2023-07-31T13:40:31;8;7;
74333;PMS5003;62753;40.394;-80.022;2023-07-31T13:42:56;7;7;
74333;PMS5003;62753;40.394;-80.022;2023-07-31T13:45:21;7;7;
74333;PMS5003;62753;40.394;-80.022;2023-07-31T13:47:46;8;7;
74333;PMS5003;62753;40.394;-80.022;2023-07-31T13:50:11;7;7;
74333;PMS5003;62753;40.394;-80.022;2023-07-31T13:52:37;7;6;
74333;PMS5003;62753;40.394;-80.022;2023-07-31T13:55:02;7;6;
74333;PMS5003;62753;40.394;-80.022;2023-07-31T13:57:27;4;4;
74333;PMS5003;62753;40.394;-80.022;2023-07-31T13:59:52;7;6;
74333;PMS5003;62753;40.394;-80.022;2023-07-31T14:02:17;9;8;
74333;PMS5003;62753;40.394;-80.022;2023-07-31T14:04:42;6;6;
74333;PMS5003;62753;40.394;-80.022;2023-07-31T14:07:07;6;6;
74333;PMS5003;62753;40.394;-80.022;2023-07-31T14:09:33;6;5;
74333;PMS5003;62753;40.394;-80.022;2023-07-31T14:11:57;6;6;
74333;PMS5003;62753;40.394;-80.022;2023-07-31T14:14:22;5;5;
74333;PMS5003;62753;40.394;-80.022;2023-07-31T14:16:47;5;4;
74333;PMS5003;62753;40.394;-80.022;2023-07-31T14:19:13;6;6;
74333;PMS5003;62753;40.394;-80.022;2023-07-31T14:21:37;4;4;
74333;PMS5003;62753;40.394;-80.022;2023-07-31T14:24:03;6;5;
74333;PMS5003;62753;40.394;-80.022;2023-07-31T14:26:28;7;6;
74333;PMS5003;62753;40.394;-80.022;2023-07-31T14:28:53;5;5;
74333;PMS5003;62753;40.394;-80.022;2023-07-31T14:31:18;5;5;
74333;PMS5003;62753;40.394;-80.022;2023-07-31T14:33:43;5;5;
74333;PMS5003;62753;40.394;-80.022;2023-07-31T14:36:08;5;5;
74333;PMS5003;62753;40.394;-80.022;2023-07-31T14:38:33;6;6;
74333;PMS5003;62753;40.394;-80.022;2023-07-31T14:40:59;4;4;
74333;PMS5003;62753;40.394;-80.022;2023-07-31T14:43:24;6;6;
74333;PMS5003;62753;40.394;-80.022;2023-07-31T14:45:49;4;4;
74333;PMS5003;62753;40.394;-80.022;2023-07-31T14:48:14;4;3;
74333;PMS5003;62753;40.394;-80.022;2023-07-31T14:50:39;7;6;
74333;PMS5003;62753;40.394;-80.022;2023-07-31T14:53:04;6;5;
74333;PMS5003;62753;40.394;-80.022;2023-07-31T14:55:29;5;4;
74333;PMS5003;62753;40.394;-80.022;2023-07-31T14:57:54;6;5;
74333;PMS5003;62753;40.394;-80.022;2023-07-31T15:00:19;5;5;
74333;PMS5003;62753;40.394;-80.022;2023-07-31T15:02:45;11;7;
74333;PMS5003;62753;40.394;-80.022;2023-07-31T15:05:10;4;4;
74333;PMS5003;62753;40.394;-80.022;2023-07-31T15:07:35;4;4;
74333;PMS5003;62753;40.394;-80.022;2023-07-31T15:10:00;5;5;
74333;PMS5003;62753;40.394;-80.022;2023-07-31T15:12:25;5;5;
74333;PMS5003;62753;40.394;-80.022;2023-07-31T15:14:50;5;5;
74333;PMS5003;62753;40.394;-80.022;2023-07-31T15:17:15;4;4;
74333;PMS5003;62753;40.394;-80.022;2023-07-31T15:19:40;5;5;
74333;PMS5003;62753;40.394;-80.022;2023-07-31T15:22:06;6;5;
74333;PMS5003;62753;40.394;-80.022;2023-07-31T15:24:30;5;5;
74333;PMS5003;62753;40.394;-80.022;2023-07-31T15:26:56;6;6;
74333;PMS5003;62753;40.394;-80.022;2023-07-31T15:29:20;4;4;
74333;PMS5003;62753;40.394;-80.022;2023-07-31T15:31:45;4;4;
74333;PMS5003;62753;40.394;-80.022;2023-07-31T15:34:10;4;4;
74333;PMS5003;62753;40.394;-80.022;2023-07-31T15:36:36;5;5;
74333;PMS5003;62753;40.394;-80.022;2023-07-31T15:39:02;6;6;
74333;PMS5003;62753;40.394;-80.022;2023-07-31T15:41:26;5;5;
74333;PMS5003;62753;40.394;-80.022;2023-07-31T15:43:52;5;5;
74333;PMS5003;62753;40.394;-80.022;2023-07-31T15:46:17;4;4;